Time;durP1;ratioP1;P1;durP2;ratioP2;P2;SDS_P1;SDS_P2;PMS_P1;PMS_P2;Temp;Humidity;BMP_temperature;BMP_pressure;BME280_temperature;BME280_humidity;BME280_pressure;Samples;Min_cycle;Max_cycle;Signal;HPM_P1;HPM_P2
2021/03/02 00:01:09;;;;;;;13.27;6.57;;;;;;;3.76;66.51;97534.69;5015268;28;20103;-79
2021/03/02 00:03:37;;;;;;;11.67;6.50;;;;;;;3.72;66.97;97541.84;4990409;28;20824;-79
2021/03/02 00:06:04;;;;;;;11.23;6.50;;;;;;;3.65;67.04;97543.06;5007236;28;20476;-79
2021/03/02 00:08:30;;;;;;;12.70;6.97;;;;;;;3.62;67.49;97547.59;4991105;28;20539;-79
2021/03/02 00:11:00;;;;;;;12.67;7.03;;;;;;;3.56;68.26;97542.78;4992747;28;20452;-79
2021/03/02 00:13:26;;;;;;;11.80;6.63;;;;;;;3.59;67.90;97543.44;4998701;28;20505;-79
2021/03/02 00:15:52;;;;;;;11.60;6.60;;;;;;;3.47;68.19;97539.72;5000784;28;20579;-79
2021/03/02 00:18:19;;;;;;;11.50;6.27;;;;;;;3.43;68.91;97546.03;5025571;28;20989;-79
2021/03/02 00:20:48;;;;;;;13.77;7.40;;;;;;;3.43;69.42;97538.22;5000121;28;20063;-79
2021/03/02 00:23:34;;;;;;;13.00;7.10;;;;;;;3.46;68.61;97543.25;4986864;28;20453;-79
2021/03/02 00:26:02;;;;;;;13.53;7.10;;;;;;;3.48;69.35;97543.16;5015841;28;20487;-79
2021/03/02 00:28:28;;;;;;;12.93;6.93;;;;;;;3.50;69.19;97534.38;5009095;28;20969;-79
2021/03/02 00:30:54;;;;;;;14.90;8.13;;;;;;;3.51;69.31;97541.22;4998009;28;20488;-77
2021/03/02 00:33:24;;;;;;;13.67;7.87;;;;;;;3.48;69.85;97538.78;4998051;28;20710;-79
2021/03/02 00:35:50;;;;;;;18.47;7.43;;;;;;;3.51;69.57;97541.22;4997646;28;20465;-79
2021/03/02 00:38:16;;;;;;;12.87;6.80;;;;;;;3.53;69.38;97539.41;5008931;28;20444;-79
2021/03/02 00:40:42;;;;;;;12.50;8.03;;;;;;;3.66;69.70;97543.94;5008251;28;20496;-79
2021/03/02 00:43:08;;;;;;;15.77;7.07;;;;;;;3.62;69.69;97542.41;5019726;28;20029;-78
2021/03/02 00:45:34;;;;;;;14.73;8.27;;;;;;;3.50;70.33;97539.56;5009840;28;20460;-79
2021/03/02 00:48:00;;;;;;;17.07;9.00;;;;;;;3.51;70.18;97533.44;4999814;28;20464;-79
2021/03/02 00:50:27;;;;;;;15.40;7.67;;;;;;;3.55;70.46;97536.69;4997465;28;20064;-79
2021/03/02 00:52:54;;;;;;;13.93;7.80;;;;;;;3.52;70.89;97535.13;4986825;28;20026;-80
2021/03/02 00:55:24;;;;;;;13.40;7.80;;;;;;;3.65;70.42;97544.84;5003307;28;20476;-79
2021/03/02 00:57:52;;;;;;;13.13;7.53;;;;;;;3.71;70.20;97527.13;5001135;28;20457;-79
2021/03/02 01:00:24;;;;;;;15.00;8.43;;;;;;;3.60;70.81;97539.06;5002828;28;20535;-79
2021/03/02 01:02:49;;;;;;;14.37;8.73;;;;;;;3.60;70.86;97536.47;4987353;28;20461;-79
2021/03/02 01:05:17;;;;;;;16.33;8.27;;;;;;;3.54;71.18;97530.66;5004163;28;20814;-79
2021/03/02 01:07:44;;;;;;;15.83;8.30;;;;;;;3.58;70.98;97541.75;5013996;28;20021;-79
2021/03/02 01:10:13;;;;;;;15.77;9.40;;;;;;;3.52;71.16;97536.88;5005910;28;20464;-79
2021/03/02 01:12:43;;;;;;;14.90;8.60;;;;;;;3.53;71.12;97528.16;4999473;28;20488;-78
2021/03/02 01:15:10;;;;;;;14.93;7.93;;;;;;;3.50;71.59;97534.38;5005918;28;21017;-79
2021/03/02 01:17:36;;;;;;;14.17;8.00;;;;;;;3.40;71.51;97532.34;5001962;28;20508;-79
2021/03/02 01:20:03;;;;;;;13.70;8.63;;;;;;;3.39;71.78;97525.47;5024018;28;20528;-79
2021/03/02 01:22:29;;;;;;;12.63;7.80;;;;;;;3.36;72.46;97525.66;5005276;28;20026;-79
2021/03/02 01:24:55;;;;;;;16.07;8.70;;;;;;;3.41;72.04;97527.06;4999478;28;20458;-79
2021/03/02 01:27:20;;;;;;;20.10;9.73;;;;;;;3.31;72.43;97528.47;4991186;28;20114;-79
2021/03/02 01:29:46;;;;;;;16.17;9.13;;;;;;;3.26;72.88;97527.91;5016469;28;20030;-79
2021/03/02 01:32:12;;;;;;;14.60;7.83;;;;;;;3.18;72.93;97530.06;5004166;28;20042;-79
2021/03/02 01:34:37;;;;;;;13.63;8.47;;;;;;;3.11;73.17;97531.31;4992584;28;20029;-79
2021/03/02 01:37:03;;;;;;;15.40;7.93;;;;;;;3.02;73.09;97532.66;4999234;28;20045;-79
2021/03/02 01:39:29;;;;;;;17.70;9.37;;;;;;;2.95;73.58;97532.13;4990635;28;20088;-79
2021/03/02 01:41:57;;;;;;;14.33;8.23;;;;;;;2.94;73.47;97525.22;4989284;28;20026;-79
2021/03/02 01:44:24;;;;;;;17.33;8.73;;;;;;;3.00;73.68;97531.88;4983301;28;20022;-79
2021/03/02 01:46:50;;;;;;;17.57;9.73;;;;;;;2.91;74.08;97529.75;5007404;28;21004;-79
2021/03/02 01:49:20;;;;;;;18.13;9.17;;;;;;;2.87;73.94;97529.06;4998481;28;21016;-79
2021/03/02 01:51:55;;;;;;;14.63;8.40;;;;;;;2.83;74.13;97533.59;5004571;28;20510;-81
2021/03/02 01:54:21;;;;;;;17.27;8.87;;;;;;;2.80;74.86;97527.72;5011094;28;20579;-79
2021/03/02 01:56:47;;;;;;;16.23;8.67;;;;;;;2.81;74.30;97531.97;4995491;28;20539;-79
2021/03/02 01:59:13;;;;;;;16.47;9.47;;;;;;;2.83;74.76;97530.16;5004216;28;20063;-80
2021/03/02 02:01:40;;;;;;;16.37;9.27;;;;;;;2.91;74.87;97530.59;4984874;28;20033;-79
2021/03/02 02:04:19;;;;;;;16.43;9.30;;;;;;;2.86;75.53;97524.81;4986684;28;20455;-79
2021/03/02 02:07:01;;;;;;;18.83;9.40;;;;;;;2.86;75.24;97527.41;5000789;28;20480;-79
2021/03/02 02:09:56;;;;;;;16.20;9.03;;;;;;;2.85;75.13;97528.34;4993636;28;20916;-79
2021/03/02 02:12:39;;;;;;;18.33;9.43;;;;;;;2.78;75.37;97526.94;5007608;28;20527;-79
2021/03/02 02:15:17;;;;;;;17.63;9.60;;;;;;;2.72;76.16;97533.31;4995922;28;20508;-79
2021/03/02 02:18:07;;;;;;;17.93;10.13;;;;;;;2.65;75.71;97526.75;5018950;28;20551;-79
2021/03/02 02:20:56;;;;;;;16.03;9.10;;;;;;;2.55;75.97;97528.16;5021514;28;20548;-79
2021/03/02 02:23:34;;;;;;;19.87;10.60;;;;;;;2.54;75.82;97529.03;4999568;28;20464;-79
2021/03/02 02:26:27;;;;;;;18.30;9.40;;;;;;;2.44;76.57;97535.63;4984224;28;20873;-79
2021/03/02 02:28:55;;;;;;;17.63;9.57;;;;;;;2.42;76.69;97527.09;5003238;28;20460;-79
2021/03/02 02:31:22;;;;;;;18.23;10.53;;;;;;;2.43;76.44;97527.00;5001820;28;20982;-79
2021/03/02 02:33:56;;;;;;;16.73;10.83;;;;;;;2.38;77.21;97536.75;5000318;28;20565;-79
2021/03/02 02:36:23;;;;;;;16.42;9.95;;;;;;;2.31;77.01;97535.38;5002475;28;20453;-79
2021/03/02 02:38:56;;;;;;;17.07;10.37;;;;;;;2.39;77.13;97535.03;4994469;28;20033;-79
2021/03/02 02:41:23;;;;;;;18.50;10.70;;;;;;;2.31;76.96;97530.19;5005455;28;20532;-79
2021/03/02 02:43:50;;;;;;;16.77;9.20;;;;;;;2.27;77.17;97532.09;5004178;28;20433;-79
2021/03/02 02:46:31;;;;;;;17.17;9.73;;;;;;;2.19;77.57;97544.63;4997526;28;20467;-79
2021/03/02 02:48:58;;;;;;;18.47;10.87;;;;;;;2.15;77.30;97547.44;5006117;28;20557;-79
2021/03/02 02:51:25;;;;;;;16.13;9.37;;;;;;;2.07;77.30;97547.81;5003717;28;20503;-79
2021/03/02 02:53:52;;;;;;;14.93;9.63;;;;;;;1.99;77.12;97544.78;5004717;28;20500;-79
2021/03/02 02:56:19;;;;;;;17.07;9.30;;;;;;;1.96;77.23;97544.91;5004587;28;20480;-79
2021/03/02 02:58:59;;;;;;;15.70;9.80;;;;;;;1.90;77.01;97548.63;5004214;28;20464;-79
2021/03/02 03:01:29;;;;;;;18.70;9.93;;;;;;;1.88;77.84;97547.88;4995962;28;20472;-79
2021/03/02 03:03:58;;;;;;;16.33;9.93;;;;;;;1.84;77.64;97543.72;5017179;28;20523;-79
2021/03/02 03:06:28;;;;;;;16.80;9.20;;;;;;;1.83;78.24;97544.66;5026371;28;20452;-79
2021/03/02 03:08:55;;;;;;;16.77;10.43;;;;;;;1.84;77.68;97551.50;5005290;28;20480;-79
2021/03/02 03:11:25;;;;;;;17.57;9.60;;;;;;;1.72;77.97;97554.72;5008486;28;20546;-79
2021/03/02 03:13:52;;;;;;;17.00;9.87;;;;;;;1.71;78.87;97546.09;4977950;28;20458;-79
2021/03/02 03:16:26;;;;;;;17.23;9.77;;;;;;;1.72;78.44;97552.94;5020613;28;20439;-79
2021/03/02 03:18:56;;;;;;;19.43;10.73;;;;;;;1.77;78.58;97544.94;5015906;28;20537;-79
2021/03/02 03:21:22;;;;;;;16.23;9.30;;;;;;;1.77;78.65;97545.78;4985672;28;20467;-79
2021/03/02 03:23:52;;;;;;;18.77;10.37;;;;;;;1.77;78.83;97547.53;5002010;28;20445;-79
2021/03/02 03:26:23;;;;;;;18.63;10.60;;;;;;;1.78;79.05;97542.28;5021882;28;20482;-78
2021/03/02 03:28:51;;;;;;;18.40;10.93;;;;;;;1.73;79.13;97548.59;5009365;28;20472;-79
2021/03/02 03:31:17;;;;;;;20.80;11.47;;;;;;;1.70;79.04;97535.78;5009742;28;20452;-79
2021/03/02 03:33:44;;;;;;;17.13;10.53;;;;;;;1.63;79.47;97546.44;5010026;28;20575;-79
2021/03/02 03:36:11;;;;;;;17.77;10.20;;;;;;;1.60;79.75;97533.59;5003286;28;20466;-79
2021/03/02 03:38:38;;;;;;;17.20;9.77;;;;;;;1.58;79.13;97545.81;5011186;28;20464;-79
2021/03/02 03:41:05;;;;;;;22.13;11.03;;;;;;;1.49;79.44;97543.66;5027891;28;20499;-79
2021/03/02 03:43:30;;;;;;;19.47;10.20;;;;;;;1.47;80.05;97548.06;5020344;28;20471;-79
2021/03/02 03:45:56;;;;;;;19.03;11.17;;;;;;;1.39;81.45;97550.16;5021371;28;20449;-79
2021/03/02 03:48:25;;;;;;;22.20;11.83;;;;;;;1.44;81.47;97542.16;5003797;28;20120;-78
2021/03/02 03:50:51;;;;;;;19.40;12.07;;;;;;;1.58;81.49;97540.63;4982886;28;20022;-79
2021/03/02 03:53:35;;;;;;;20.13;11.67;;;;;;;1.62;81.63;97544.75;4985905;28;20495;-78
2021/03/02 03:56:01;;;;;;;22.77;13.30;;;;;;;1.55;81.87;97543.38;5019759;28;20478;-79
2021/03/02 03:58:29;;;;;;;34.60;19.50;;;;;;;1.63;81.78;97546.44;5025582;28;20444;-78
2021/03/02 04:00:56;;;;;;;31.73;16.70;;;;;;;1.55;81.46;97545.13;5006520;28;20108;-78
2021/03/02 04:03:27;;;;;;;32.03;15.70;;;;;;;1.50;82.26;97541.91;5008745;28;20567;-79
2021/03/02 04:05:53;;;;;;;31.93;15.93;;;;;;;1.53;82.08;97542.59;5000261;28;20556;-79
2021/03/02 04:08:19;;;;;;;26.93;15.23;;;;;;;1.55;82.19;97545.97;5002613;28;20494;-79
2021/03/02 04:10:49;;;;;;;25.03;14.20;;;;;;;1.66;82.34;97542.84;5002815;28;20457;-79
2021/03/02 04:13:15;;;;;;;23.13;12.33;;;;;;;1.67;81.82;97543.69;4988442;28;20431;-79
2021/03/02 04:15:42;;;;;;;21.13;12.80;;;;;;;1.76;81.94;97554.47;5017742;28;20998;-79
2021/03/02 04:18:13;;;;;;;22.87;11.93;;;;;;;1.68;82.21;97555.75;4999454;28;21017;-78
2021/03/02 04:20:39;;;;;;;21.97;13.13;;;;;;;1.63;82.30;97546.44;4997446;28;20452;-79
2021/03/02 04:23:05;;;;;;;23.20;12.97;;;;;;;1.68;82.04;97548.81;5010500;28;20531;-79
2021/03/02 04:25:31;;;;;;;20.27;11.67;;;;;;;1.73;81.37;97551.19;5017884;28;20889;-79
2021/03/02 04:28:01;;;;;;;25.50;13.23;;;;;;;1.62;82.49;97552.53;5015740;28;20049;-79
2021/03/02 04:30:35;;;;;;;22.27;12.83;;;;;;;1.61;81.72;97550.88;5011976;28;21029;-79
2021/03/02 04:33:01;;;;;;;20.10;12.13;;;;;;;1.57;82.18;97556.25;4999980;28;20507;-79
2021/03/02 04:35:27;;;;;;;27.20;14.07;;;;;;;1.54;82.24;97565.03;5003740;28;20030;-79
2021/03/02 04:37:54;;;;;;;23.40;13.77;;;;;;;1.69;81.96;97555.69;5008073;28;20459;-79
2021/03/02 04:40:20;;;;;;;23.90;14.20;;;;;;;1.54;82.47;97558.97;4989094;28;20030;-79
2021/03/02 04:42:46;;;;;;;25.77;12.87;;;;;;;1.44;82.99;97557.72;5019398;28;20546;-79
2021/03/02 04:45:14;;;;;;;20.00;12.53;;;;;;;1.43;83.17;97567.25;5009264;28;20025;-79
2021/03/02 04:47:41;;;;;;;21.93;12.80;;;;;;;1.46;83.04;97561.94;5002614;28;20456;-79
2021/03/02 04:50:07;;;;;;;22.23;12.97;;;;;;;1.53;82.32;97567.69;5008682;28;20460;-78
2021/03/02 04:52:33;;;;;;;21.73;12.23;;;;;;;1.45;82.55;97562.03;4996880;28;20473;-78
2021/03/02 04:54:59;;;;;;;25.60;12.93;;;;;;;1.40;82.91;97564.81;5008864;28;20440;-79
2021/03/02 04:57:24;;;;;;;21.00;11.87;;;;;;;1.41;82.86;97563.91;4986998;28;20399;-78
2021/03/02 04:59:51;;;;;;;23.23;13.00;;;;;;;1.34;83.15;97575.44;4982249;28;20057;-79
2021/03/02 05:02:17;;;;;;;23.20;13.47;;;;;;;1.34;83.19;97562.47;5019402;28;20084;-79
2021/03/02 05:04:42;;;;;;;22.10;13.00;;;;;;;1.25;83.37;97566.34;4985582;28;20441;-79
2021/03/02 05:07:09;;;;;;;21.97;12.87;;;;;;;1.22;83.42;97568.25;5003463;28;20068;-79
2021/03/02 05:09:37;;;;;;;29.40;15.67;;;;;;;1.24;83.58;97563.81;5006385;28;20030;-79
2021/03/02 05:12:03;;;;;;;24.40;13.93;;;;;;;1.23;83.54;97562.13;4983548;28;20541;-77
2021/03/02 05:14:28;;;;;;;24.70;13.87;;;;;;;1.16;84.25;97564.16;4998602;28;20489;-79
2021/03/02 05:16:55;;;;;;;24.70;13.97;;;;;;;1.13;84.05;97562.53;5006752;28;20025;-79
2021/03/02 05:19:20;;;;;;;23.67;14.10;;;;;;;1.13;83.58;97569.47;5004439;28;20030;-79
2021/03/02 05:21:46;;;;;;;23.60;13.53;;;;;;;1.11;84.25;97560.94;5008422;28;20510;-79
2021/03/02 05:24:20;;;;;;;24.23;13.43;;;;;;;1.15;84.15;97563.31;5021116;28;20117;-79
2021/03/02 05:26:46;;;;;;;23.83;13.83;;;;;;;1.14;83.99;97571.16;5001093;28;20044;-79
2021/03/02 05:29:11;;;;;;;32.13;20.23;;;;;;;1.14;83.74;97561.66;5010857;28;20452;-79
2021/03/02 05:31:37;;;;;;;28.53;18.17;;;;;;;1.12;83.79;97560.88;5008820;28;20060;-79
2021/03/02 05:34:03;;;;;;;22.33;14.00;;;;;;;1.09;83.43;97563.59;4999944;28;20030;-79
2021/03/02 05:36:28;;;;;;;24.30;13.80;;;;;;;1.08;83.01;97564.50;4998762;28;20034;-79
2021/03/02 05:38:54;;;;;;;23.77;13.87;;;;;;;1.06;82.29;97565.50;5022465;28;20378;-78
2021/03/02 05:41:20;;;;;;;24.40;14.80;;;;;;;0.97;82.31;97561.53;5022412;28;20853;-79
2021/03/02 05:43:46;;;;;;;22.83;15.13;;;;;;;0.91;82.54;97572.19;4997781;28;20026;-79
2021/03/02 05:46:12;;;;;;;23.83;15.27;;;;;;;0.96;83.35;97572.81;5004559;28;20516;-79
2021/03/02 05:48:41;;;;;;;24.07;14.47;;;;;;;1.00;83.08;97570.94;4999546;28;20087;-79
2021/03/02 05:51:08;;;;;;;25.53;16.33;;;;;;;0.95;81.88;97573.72;5008465;28;20036;-79
2021/03/02 05:53:37;;;;;;;25.20;15.13;;;;;;;0.90;83.36;97570.50;5003966;28;20464;-78
2021/03/02 05:56:05;;;;;;;29.67;16.47;;;;;;;0.95;83.64;97573.72;5011201;28;20507;-79
2021/03/02 05:58:31;;;;;;;25.63;15.87;;;;;;;0.98;84.14;97572.78;4993438;28;20488;-79
2021/03/02 06:00:56;;;;;;;27.40;15.03;;;;;;;0.95;84.46;97573.72;5000697;28;20465;-80
2021/03/02 06:03:22;;;;;;;24.97;15.07;;;;;;;1.06;84.30;97576.69;5019195;28;20037;-79
2021/03/02 06:05:49;;;;;;;26.47;14.63;;;;;;;1.07;83.75;97578.34;5022902;28;20586;-78
2021/03/02 06:08:14;;;;;;;27.50;15.30;;;;;;;1.01;84.10;97581.25;5001987;28;20056;-79
2021/03/02 06:10:40;;;;;;;26.20;15.53;;;;;;;1.02;84.03;97582.09;5002346;28;21001;-78
2021/03/02 06:13:06;;;;;;;27.57;14.93;;;;;;;1.10;84.31;97591.19;4987805;28;20041;-78
2021/03/02 06:15:32;;;;;;;31.27;16.17;;;;;;;1.32;83.42;97590.25;5011932;28;20035;-77
2021/03/02 06:18:18;;;;;;;25.90;14.77;;;;;;;1.43;82.86;97588.00;4996993;28;20457;-75
2021/03/02 06:20:45;;;;;;;27.20;15.10;;;;;;;1.65;82.18;97587.88;4994172;28;20075;-77
2021/03/02 06:23:23;;;;;;;23.63;14.37;;;;;;;1.80;81.15;97588.88;5017718;28;21059;-77
2021/03/02 06:25:53;;;;;;;25.03;14.27;;;;;;;2.02;80.27;97589.56;4977384;28;20472;-77
2021/03/02 06:28:40;;;;;;;23.57;13.67;;;;;;;2.42;78.29;97585.03;5005972;28;20467;-77
2021/03/02 06:31:07;;;;;;;36.33;19.13;;;;;;;2.39;77.97;97595.56;5015086;28;20465;-78
2021/03/02 06:33:33;;;;;;;26.37;14.67;;;;;;;2.66;76.38;97582.13;4983189;28;20870;-78
2021/03/02 06:35:59;;;;;;;26.90;14.23;;;;;;;2.85;75.54;97590.69;5000381;28;20556;-77
2021/03/02 06:38:33;;;;;;;25.13;13.97;;;;;;;3.25;72.89;97581.66;4987303;28;20556;-78
2021/03/02 06:41:01;;;;;;;23.27;13.73;;;;;;;3.06;74.71;97591.34;5019117;28;20484;-78
2021/03/02 06:43:33;;;;;;;23.70;14.53;;;;;;;3.30;74.77;97586.59;5002892;28;20439;-78
2021/03/02 06:46:01;;;;;;;23.92;14.30;;;;;;;4.06;71.80;97584.22;5003620;28;20508;-78
2021/03/02 06:48:31;;;;;;;26.47;14.90;;;;;;;4.53;69.58;97580.66;4996356;28;20077;-78
2021/03/02 06:50:57;;;;;;;22.87;14.03;;;;;;;5.02;67.30;97579.53;4979123;28;20480;-77
2021/03/02 06:53:23;;;;;;;20.17;11.63;;;;;;;4.79;67.40;97583.50;4993594;28;20457;-78
2021/03/02 06:55:49;;;;;;;21.67;13.03;;;;;;;5.13;67.19;97577.09;4996323;28;20452;-78
2021/03/02 06:58:18;;;;;;;20.63;13.07;;;;;;;5.18;65.68;97585.50;5002234;28;20034;-77
2021/03/02 07:00:52;;;;;;;22.13;12.20;;;;;;;4.80;67.69;97585.19;5009403;28;20431;-77
2021/03/02 07:03:25;;;;;;;20.47;11.67;;;;;;;4.36;69.18;97588.59;4984842;28;20972;-79
2021/03/02 07:05:51;;;;;;;20.10;11.98;;;;;;;4.51;69.37;97589.50;5012619;28;20561;-78
2021/03/02 07:08:17;;;;;;;21.30;12.00;;;;;;;5.60;66.23;97589.00;4996458;28;20161;-77
2021/03/02 07:10:49;;;;;;;20.23;11.53;;;;;;;6.16;63.43;97589.84;5006400;28;20048;-79
2021/03/02 07:13:15;;;;;;;22.07;11.57;;;;;;;5.67;63.55;97585.13;4986466;28;20030;-79
2021/03/02 07:15:41;;;;;;;26.57;13.00;;;;;;;6.66;61.64;97582.28;5002792;28;20084;-79
2021/03/02 07:18:10;;;;;;;23.57;15.13;;;;;;;5.89;63.30;97587.19;5006380;28;20029;-79
2021/03/02 07:20:37;;;;;;;21.33;13.03;;;;;;;6.12;62.77;97591.00;5014896;28;20415;-79
2021/03/02 07:23:05;;;;;;;19.10;12.37;;;;;;;7.13;59.24;97586.91;5021791;28;20022;-78
2021/03/02 07:25:35;;;;;;;20.60;11.43;;;;;;;7.27;58.72;97592.03;4998969;28;20506;-79
2021/03/02 07:28:01;;;;;;;20.60;12.23;;;;;;;5.74;64.62;97596.84;5000080;28;20087;-79
2021/03/02 07:30:45;;;;;;;19.20;11.57;;;;;;;5.31;64.26;97604.69;5003300;28;20152;-79
2021/03/02 07:33:11;;;;;;;17.40;11.75;;;;;;;5.81;64.11;97600.75;5008490;28;20141;-79
2021/03/02 07:35:39;;;;;;;20.00;12.27;;;;;;;5.78;65.10;97607.94;5003330;28;20376;-79
2021/03/02 07:38:20;;;;;;;21.30;12.70;;;;;;;6.20;62.41;97607.00;4980334;28;20026;-79
2021/03/02 07:40:53;;;;;;;22.03;12.23;;;;;;;5.40;64.99;97611.13;5008689;28;20034;-79
2021/03/02 07:43:55;;;;;;;20.47;13.17;;;;;;;6.99;59.99;97608.78;4987679;28;20080;-79
2021/03/02 07:46:26;;;;;;;18.73;11.00;;;;;;;6.22;62.19;97607.75;4985391;28;20662;-80
2021/03/02 07:48:52;;;;;;;17.73;10.93;;;;;;;6.67;62.35;97616.16;4991945;28;20056;-79
2021/03/02 07:51:21;;;;;;;19.17;12.00;;;;;;;6.38;61.57;97612.84;5008015;28;20495;-79
2021/03/02 07:53:49;;;;;;;17.60;11.17;;;;;;;6.58;61.77;97617.59;4987622;28;20030;-79
2021/03/02 07:56:21;;;;;;;17.63;11.53;;;;;;;7.32;59.07;97607.44;5014804;28;20462;-79
2021/03/02 07:59:09;;;;;;;22.60;12.90;;;;;;;8.14;56.16;97597.31;5019294;28;20053;-79
2021/03/02 08:01:35;;;;;;;20.43;12.53;;;;;;;9.16;54.76;97610.72;5018293;28;20038;-81
2021/03/02 08:04:13;;;;;;;21.07;11.87;;;;;;;9.06;53.13;97609.75;5007772;28;20132;-80
2021/03/02 08:06:40;;;;;;;18.87;12.17;;;;;;;8.71;54.16;97615.84;4999356;28;20769;-81
2021/03/02 08:09:32;;;;;;;19.97;12.10;;;;;;;7.84;57.65;97622.13;5011935;28;20026;-79
2021/03/02 08:12:27;;;;;;;17.93;10.97;;;;;;;6.96;60.69;97622.06;5005500;28;20050;-80
2021/03/02 08:14:53;;;;;;;18.53;11.63;;;;;;;8.94;55.94;97611.50;4991255;28;20066;-79
2021/03/02 08:17:20;;;;;;;20.07;12.63;;;;;;;9.43;54.36;97607.78;5017570;28;20037;-80
2021/03/02 08:19:51;;;;;;;20.43;12.30;;;;;;;9.93;51.45;97610.03;5015729;28;20040;-79
2021/03/02 08:22:16;;;;;;;16.93;11.80;;;;;;;9.96;52.16;97615.06;5006203;28;20030;-80
2021/03/02 08:25:04;;;;;;;20.13;12.70;;;;;;;9.92;52.98;97613.59;4998124;28;20029;-79
2021/03/02 08:27:42;;;;;;;17.80;11.60;;;;;;;10.85;49.53;97613.97;5007370;28;20065;-77
2021/03/02 08:30:13;;;;;;;19.40;11.73;;;;;;;9.86;51.31;97614.13;4998398;28;20086;-79
2021/03/02 08:32:42;;;;;;;20.97;11.93;;;;;;;10.03;51.84;97613.63;5025424;28;20088;-80
2021/03/02 08:35:14;;;;;;;20.03;12.33;;;;;;;9.00;54.41;97614.63;5002099;28;20018;-80
2021/03/02 08:37:55;;;;;;;20.67;13.10;;;;;;;8.69;55.46;97617.75;4996879;28;20036;-79
2021/03/02 08:40:24;;;;;;;20.17;13.20;;;;;;;9.43;53.00;97614.81;5007482;28;20037;-79
2021/03/02 08:43:08;;;;;;;17.77;12.27;;;;;;;8.85;55.34;97619.22;5004954;28;20133;-79
2021/03/02 08:45:39;;;;;;;18.80;12.23;;;;;;;9.31;52.46;97610.50;5009721;28;20495;-79
2021/03/02 08:48:17;;;;;;;19.67;12.10;;;;;;;8.78;55.04;97618.00;4999939;28;20026;-79
2021/03/02 08:50:43;;;;;;;24.60;11.53;;;;;;;9.62;52.87;97615.09;4988020;28;20034;-79
2021/03/02 08:53:43;;;;;;;19.10;12.17;;;;;;;10.96;49.76;97604.34;5006527;28;20053;-79
2021/03/02 08:56:11;;;;;;;19.70;11.87;;;;;;;10.98;49.82;97608.53;5004483;28;20644;-80
2021/03/02 08:58:39;;;;;;;16.53;11.30;;;;;;;10.47;50.14;97614.50;5007993;28;20092;-80
2021/03/02 09:01:16;;;;;;;18.07;11.80;;;;;;;9.85;53.04;97615.06;5010242;28;20083;-79
2021/03/02 09:03:44;;;;;;;20.60;11.97;;;;;;;9.71;52.11;97615.31;5009800;28;20033;-79
2021/03/02 09:06:19;;;;;;;20.07;11.93;;;;;;;11.21;49.50;97622.41;5005516;28;20029;-79
2021/03/02 09:08:57;;;;;;;18.50;11.77;;;;;;;10.30;50.81;97622.91;5009118;28;20073;-79
2021/03/02 09:11:29;;;;;;;19.07;12.00;;;;;;;11.67;48.27;97610.59;4994813;28;20040;-79
2021/03/02 09:13:57;;;;;;;20.87;12.53;;;;;;;11.31;48.09;97614.56;5023501;28;20029;-79
2021/03/02 09:16:43;;;;;;;21.70;12.20;;;;;;;10.51;50.34;97621.16;4981295;28;20062;-80
2021/03/02 09:19:19;;;;;;;21.87;11.93;;;;;;;11.40;48.53;97611.16;5017965;28;20080;-80
2021/03/02 09:21:51;;;;;;;22.93;11.93;;;;;;;11.29;48.20;97605.94;5004824;28;20040;-80
2021/03/02 09:24:55;;;;;;;19.10;11.33;;;;;;;11.74;48.03;97600.34;4986847;28;20044;-79
2021/03/02 09:27:22;;;;;;;15.25;11.02;;;;;;;11.60;47.08;97603.31;5010135;28;20120;-79
2021/03/02 09:29:52;;;;;;;19.20;11.40;;;;;;;11.68;47.38;97606.97;5003897;28;20474;-80
2021/03/02 09:32:29;;;;;;;21.13;13.07;;;;;;;11.62;48.03;97606.66;5002340;28;20120;-81
2021/03/02 09:35:08;;;;;;;21.47;12.17;;;;;;;11.05;49.04;97608.84;4987214;28;20049;-80
2021/03/02 09:37:48;;;;;;;19.70;12.43;;;;;;;11.32;48.14;97613.59;5009329;28;20060;-80
2021/03/02 09:40:15;;;;;;;19.17;11.67;;;;;;;10.40;50.83;97617.75;5023064;28;20092;-79
2021/03/02 09:42:51;;;;;;;19.10;12.80;;;;;;;10.91;48.96;97623.16;5002164;28;20021;-79
2021/03/02 09:45:18;;;;;;;18.93;11.47;;;;;;;11.30;48.59;97613.72;5002657;28;20034;-79
2021/03/02 09:47:56;;;;;;;18.43;11.47;;;;;;;11.87;47.20;97624.72;5005610;28;20033;-79
2021/03/02 09:50:22;;;;;;;17.63;11.80;;;;;;;11.71;48.18;97616.44;4995858;28;20036;-80
2021/03/02 09:52:55;;;;;;;15.97;11.03;;;;;;;12.73;45.20;97617.09;4980366;28;20105;-80
2021/03/02 09:55:21;;;;;;;17.30;11.13;;;;;;;12.29;46.85;97621.06;4998014;28;20057;-80
2021/03/02 09:57:50;;;;;;;23.07;14.07;;;;;;;13.72;43.60;97608.88;4993750;28;20038;-79
2021/03/02 10:00:17;;;;;;;17.33;11.53;;;;;;;13.83;42.72;97606.03;4999687;28;20036;-79
2021/03/02 10:03:06;;;;;;;16.80;12.13;;;;;;;13.35;44.12;97610.53;5011657;28;20033;-80
2021/03/02 10:05:36;;;;;;;23.90;13.27;;;;;;;14.64;41.46;97614.09;5009965;28;20522;-81
2021/03/02 10:08:22;;;;;;;21.53;12.50;;;;;;;14.63;41.28;97614.25;4999900;28;20402;-79
2021/03/02 10:10:49;;;;;;;16.33;11.03;;;;;;;16.12;38.46;97600.84;5005473;28;20474;-81
2021/03/02 10:13:33;;;;;;;17.53;11.83;;;;;;;15.04;39.63;97613.63;5007930;28;20030;-80
2021/03/02 10:16:30;;;;;;;16.83;11.73;;;;;;;14.44;41.26;97617.81;5005823;28;20025;-80
2021/03/02 10:19:00;;;;;;;16.63;11.73;;;;;;;14.18;42.44;97617.69;5004310;28;20105;-80
2021/03/02 10:21:29;;;;;;;15.97;11.43;;;;;;;14.76;40.16;97612.88;5029779;28;20479;-80
2021/03/02 10:23:58;;;;;;;16.67;10.37;;;;;;;15.06;40.29;97618.78;5005236;28;20029;-80
2021/03/02 10:26:30;;;;;;;18.27;11.63;;;;;;;15.49;39.45;97609.97;4999839;28;20030;-81
2021/03/02 10:28:57;;;;;;;16.13;10.80;;;;;;;15.56;39.73;97612.84;4992700;28;20156;-79
2021/03/02 10:31:24;;;;;;;25.17;13.00;;;;;;;15.60;40.20;97622.13;4999676;28;20026;-80
2021/03/02 10:33:50;;;;;;;18.30;11.57;;;;;;;16.18;39.01;97610.81;4980669;28;20026;-79
2021/03/02 10:36:27;;;;;;;15.80;11.37;;;;;;;17.04;37.49;97617.66;5004359;28;20502;-81
2021/03/02 10:38:54;;;;;;;16.33;11.77;;;;;;;16.86;37.96;97614.31;5005826;28;20038;-80
2021/03/02 10:41:27;;;;;;;16.87;11.40;;;;;;;16.94;36.94;97617.00;5000615;28;20041;-80
2021/03/02 10:43:56;;;;;;;18.73;12.07;;;;;;;15.65;38.80;97627.78;5023270;28;20026;-80
2021/03/02 10:46:27;;;;;;;15.13;11.67;;;;;;;17.02;36.87;97624.13;5014554;28;20108;-80
2021/03/02 10:48:55;;;;;;;17.40;11.77;;;;;;;16.88;36.96;97622.97;4991376;28;20034;-80
2021/03/02 10:51:22;;;;;;;18.83;12.20;;;;;;;16.99;36.29;97619.97;5010703;28;20021;-80
2021/03/02 10:53:53;;;;;;;16.45;12.15;;;;;;;16.48;38.31;97616.56;5007713;28;20156;-80
2021/03/02 10:56:20;;;;;;;18.40;11.40;;;;;;;15.57;39.98;97619.78;4989190;28;20042;-81
2021/03/02 10:58:49;;;;;;;14.57;10.68;;;;;;;16.73;37.70;97620.06;4997193;28;20458;-80
2021/03/02 11:01:15;;;;;;;14.32;10.73;;;;;;;17.35;36.39;97614.31;5004303;28;20040;-80
2021/03/02 11:03:42;;;;;;;14.65;10.77;;;;;;;16.37;37.09;97622.19;5001864;28;20029;-80
2021/03/02 11:06:10;;;;;;;15.63;11.68;;;;;;;15.97;38.46;97615.72;4995830;28;20054;-81
2021/03/02 11:08:41;;;;;;;20.23;11.80;;;;;;;16.98;36.69;97613.00;4999975;28;20118;-81
2021/03/02 11:11:08;;;;;;;15.85;11.10;;;;;;;18.14;34.87;97609.97;5024430;28;20026;-81
2021/03/02 11:13:34;;;;;;;15.57;12.00;;;;;;;17.62;35.48;97605.13;4999138;28;20018;-81
2021/03/02 11:16:00;;;;;;;16.58;11.82;;;;;;;17.54;35.12;97602.47;4993396;28;20030;-79
2021/03/02 11:18:26;;;;;;;16.77;10.98;;;;;;;18.04;34.84;97596.88;5012983;28;20029;-82
2021/03/02 11:20:51;;;;;;;15.45;10.90;;;;;;;18.51;33.74;97592.44;5014544;28;20021;-80
2021/03/02 11:23:17;;;;;;;17.42;11.73;;;;;;;16.48;38.04;97600.63;5028561;28;20084;-81
2021/03/02 11:25:44;;;;;;;15.82;11.10;;;;;;;17.14;35.97;97597.06;4989652;28;20105;-81
2021/03/02 11:28:11;;;;;;;14.70;10.77;;;;;;;17.53;35.74;97593.66;4998315;28;20117;-79
2021/03/02 11:30:38;;;;;;;17.30;11.70;;;;;;;17.86;35.36;97590.94;4992299;28;20025;-81
2021/03/02 11:33:04;;;;;;;15.40;11.10;;;;;;;17.86;35.86;97591.78;4999409;28;20106;-79
2021/03/02 11:35:30;;;;;;;16.77;11.95;;;;;;;17.42;35.79;97584.22;5007227;28;20030;-80
2021/03/02 11:37:58;;;;;;;15.15;11.88;;;;;;;17.20;36.00;97579.59;5015321;28;20026;-80